Time;durP1;ratioP1;P1;durP2;ratioP2;P2;SDS_P1;SDS_P2;PMS_P1;PMS_P2;Temp;Humidity;BMP_temperature;BMP_pressure;BME280_temperature;BME280_humidity;BME280_pressure;Samples;Min_cycle;Max_cycle;Signal;HPM_P1;HPM_P2
2022/11/29 00:00:25;;;;;;;43.78;29.67;;;;;;;;;;1270298;23;20002;-78
2022/11/29 00:00:57;;;;;;;47.78;29.02;;;;;;;;;;1270408;23;20010;-78
2022/11/29 00:01:29;;;;;;;46.25;29.92;;;;;;;;;;1270913;23;20001;-78
2022/11/29 00:02:00;;;;;;;45.13;28.50;;;;;;;;;;1277107;23;20036;-77
2022/11/29 00:02:31;;;;;;;44.58;28.95;;;;;;;;;;1276737;23;20005;-79
2022/11/29 00:03:02;;;;;;;45.05;27.45;;;;;;;;;;1270185;23;20105;-78
2022/11/29 00:03:33;;;;;;;46.00;29.73;;;;;;;;;;1264135;23;20524;-78
2022/11/29 00:04:04;;;;;;;45.45;29.30;;;;;;;;;;1264214;23;20014;-78
2022/11/29 00:04:37;;;;;;;48.35;31.30;;;;;;;;;;1264740;23;20002;-79
2022/11/29 00:05:08;;;;;;;50.67;32.75;;;;;;;;;;1270293;23;20001;-78
2022/11/29 00:05:39;;;;;;;48.00;31.77;;;;;;;;;;1271151;23;20033;-78
2022/11/29 00:06:14;;;;;;;45.60;29.65;;;;;;;;;;1276909;23;20005;-78
2022/11/29 00:06:45;;;;;;;42.90;27.65;;;;;;;;;;1270207;23;20433;-78
2022/11/29 00:07:16;;;;;;;36.17;26.00;;;;;;;;;;1270275;23;20423;-78
2022/11/29 00:07:48;;;;;;;46.13;28.85;;;;;;;;;;1270426;23;20061;-79
2022/11/29 00:08:19;;;;;;;46.08;30.20;;;;;;;;;;1264440;23;20009;-78
2022/11/29 00:08:50;;;;;;;46.15;28.92;;;;;;;;;;1264274;23;20018;-79
2022/11/29 00:09:21;;;;;;;45.63;30.17;;;;;;;;;;1264304;23;20010;-78
2022/11/29 00:09:52;;;;;;;45.55;30.23;;;;;;;;;;1258479;23;20010;-78
2022/11/29 00:10:23;;;;;;;38.55;24.85;;;;;;;;;;1264488;23;20009;-79
2022/11/29 00:10:54;;;;;;;43.58;27.50;;;;;;;;;;1263822;23;20010;-78
2022/11/29 00:12:17;;;;;;;43.70;27.45;;;;;;;;;;1268991;23;20087;-77
2022/11/29 00:12:48;;;;;;;44.38;29.02;;;;;;;;;;1270505;23;20059;-78
2022/11/29 00:13:18;;;;;;;48.60;30.83;;;;;;;;;;1270810;23;20072;-77
2022/11/29 00:13:49;;;;;;;46.03;29.83;;;;;;;;;;1271018;23;20016;-77
2022/11/29 00:14:21;;;;;;;49.05;30.20;;;;;;;;;;1264149;23;20012;-78
2022/11/29 00:14:52;;;;;;;50.17;31.00;;;;;;;;;;1264498;23;20014;-79
2022/11/29 00:15:23;;;;;;;44.63;29.65;;;;;;;;;;1264432;23;20006;-78
2022/11/29 00:15:54;;;;;;;50.40;33.22;;;;;;;;;;1264353;23;20438;-79
2022/11/29 00:16:25;;;;;;;45.80;30.38;;;;;;;;;;1264103;23;20323;-77
2022/11/29 00:17:04;;;;;;;41.92;27.27;;;;;;;;;;1263994;23;20006;-78
2022/11/29 00:17:35;;;;;;;42.47;26.90;;;;;;;;;;1264138;23;20001;-77
2022/11/29 00:18:07;;;;;;;36.60;24.20;;;;;;;;;;1264196;23;20005;-79
2022/11/29 00:18:37;;;;;;;43.20;27.17;;;;;;;;;;1264294;23;20431;-78
2022/11/29 00:19:09;;;;;;;43.28;27.45;;;;;;;;;;1263423;23;20327;-79
2022/11/29 00:19:40;;;;;;;44.25;29.33;;;;;;;;;;1264330;23;20001;-77
2022/11/29 00:20:11;;;;;;;43.10;29.05;;;;;;;;;;1263965;23;20003;-78
2022/11/29 00:20:42;;;;;;;45.35;30.38;;;;;;;;;;1264295;23;20002;-78
2022/11/29 00:21:13;;;;;;;49.85;30.90;;;;;;;;;;1263508;23;20006;-78
2022/11/29 00:21:44;;;;;;;43.85;28.80;;;;;;;;;;1258307;23;20355;-78
2022/11/29 00:22:15;;;;;;;38.92;25.48;;;;;;;;;;1264048;23;20017;-78
2022/11/29 00:22:46;;;;;;;40.35;24.17;;;;;;;;;;1264305;23;20002;-77
2022/11/29 00:23:17;;;;;;;41.47;28.90;;;;;;;;;;1264179;23;19997;-77
2022/11/29 00:23:48;;;;;;;54.42;33.63;;;;;;;;;;1264574;23;20110;-78
2022/11/29 00:24:19;;;;;;;45.35;29.95;;;;;;;;;;1270675;23;20001;-78
2022/11/29 00:24:50;;;;;;;41.58;28.13;;;;;;;;;;1270781;23;20001;-77
2022/11/29 00:25:21;;;;;;;43.30;25.35;;;;;;;;;;1264071;23;20037;-78
2022/11/29 00:25:52;;;;;;;44.35;28.02;;;;;;;;;;1264571;23;20095;-78
2022/11/29 00:26:23;;;;;;;49.00;31.80;;;;;;;;;;1264125;23;20418;-77
2022/11/29 00:26:54;;;;;;;48.25;29.73;;;;;;;;;;1264196;23;20013;-77
2022/11/29 00:27:25;;;;;;;50.15;32.22;;;;;;;;;;1263855;23;20359;-78
2022/11/29 00:27:56;;;;;;;46.90;28.65;;;;;;;;;;1263947;23;20006;-76
2022/11/29 00:28:27;;;;;;;49.47;29.85;;;;;;;;;;1258581;23;20518;-77
2022/11/29 00:28:58;;;;;;;49.47;31.10;;;;;;;;;;1264263;23;20439;-79
2022/11/29 00:29:30;;;;;;;50.05;32.03;;;;;;;;;;1264199;23;20017;-77
2022/11/29 00:30:00;;;;;;;50.08;31.08;;;;;;;;;;1264232;23;20006;-77
2022/11/29 00:30:31;;;;;;;45.85;30.10;;;;;;;;;;1264003;23;20005;-77
2022/11/29 00:31:16;;;;;;;46.70;30.52;;;;;;;;;;1264132;23;20002;-77
2022/11/29 00:31:47;;;;;;;46.97;28.95;;;;;;;;;;1261201;23;20005;-77
2022/11/29 00:32:18;;;;;;;49.88;31.48;;;;;;;;;;1261127;23;20005;-78
2022/11/29 00:32:49;;;;;;;48.47;30.70;;;;;;;;;;1264134;23;20188;-77
2022/11/29 00:33:20;;;;;;;46.22;28.95;;;;;;;;;;1264837;23;20006;-78
2022/11/29 00:33:51;;;;;;;47.08;31.25;;;;;;;;;;1270983;23;20020;-77
2022/11/29 00:34:22;;;;;;;45.25;27.60;;;;;;;;;;1264110;23;20013;-78
2022/11/29 00:34:53;;;;;;;42.97;27.85;;;;;;;;;;1264117;23;20089;-78
2022/11/29 00:35:24;;;;;;;33.80;23.75;;;;;;;;;;1264158;23;20275;-77
2022/11/29 00:35:55;;;;;;;41.83;28.67;;;;;;;;;;1264152;23;20021;-77
2022/11/29 00:36:26;;;;;;;47.88;27.83;;;;;;;;;;1264255;23;20525;-77
2022/11/29 00:36:57;;;;;;;45.42;26.83;;;;;;;;;;1263895;23;20044;-78
2022/11/29 00:37:28;;;;;;;43.13;27.38;;;;;;;;;;1264335;23;20005;-77
2022/11/29 00:37:59;;;;;;;45.03;29.42;;;;;;;;;;1264249;23;20081;-78
2022/11/29 00:38:30;;;;;;;44.42;28.00;;;;;;;;;;1264339;23;20002;-77
2022/11/29 00:39:02;;;;;;;52.75;31.13;;;;;;;;;;1264983;23;20002;-77
2022/11/29 00:39:33;;;;;;;46.75;28.20;;;;;;;;;;1270726;23;20009;-78
2022/11/29 00:40:05;;;;;;;45.33;27.02;;;;;;;;;;1264252;23;20006;-77
2022/11/29 00:40:35;;;;;;;36.70;25.63;;;;;;;;;;1264307;23;20058;-78
2022/11/29 00:41:07;;;;;;;39.97;26.00;;;;;;;;;;1263929;23;20010;-77
2022/11/29 00:41:38;;;;;;;39.97;26.70;;;;;;;;;;1264311;23;20013;-78
2022/11/29 00:42:09;;;;;;;42.00;27.25;;;;;;;;;;1263846;23;20132;-78
2022/11/29 00:42:40;;;;;;;40.60;28.23;;;;;;;;;;1263740;23;20029;-77
2022/11/29 00:43:11;;;;;;;40.08;27.13;;;;;;;;;;1263949;23;20010;-78
2022/11/29 00:43:42;;;;;;;38.72;26.60;;;;;;;;;;1264416;23;20015;-78
2022/11/29 00:44:13;;;;;;;42.10;25.92;;;;;;;;;;1264288;23;20002;-78
2022/11/29 00:44:44;;;;;;;39.85;26.15;;;;;;;;;;1264182;23;20355;-78
2022/11/29 00:45:15;;;;;;;37.15;24.45;;;;;;;;;;1258336;23;20433;-78
2022/11/29 00:45:46;;;;;;;36.17;23.85;;;;;;;;;;1264374;23;20004;-78
2022/11/29 00:46:17;;;;;;;36.58;24.23;;;;;;;;;;1263955;23;20021;-78
2022/11/29 00:46:48;;;;;;;45.17;27.38;;;;;;;;;;1264393;23;20338;-77
2022/11/29 00:47:19;;;;;;;44.35;28.48;;;;;;;;;;1264300;23;20096;-78
2022/11/29 00:47:50;;;;;;;51.58;31.88;;;;;;;;;;1264031;23;20002;-78
2022/11/29 00:48:21;;;;;;;48.40;30.92;;;;;;;;;;1263598;23;20008;-78
2022/11/29 00:48:52;;;;;;;49.85;30.10;;;;;;;;;;1258409;23;20102;-78
2022/11/29 00:49:23;;;;;;;40.38;27.75;;;;;;;;;;1264811;23;20057;-78
2022/11/29 00:49:54;;;;;;;38.50;27.38;;;;;;;;;;1270538;23;20158;-78
2022/11/29 00:50:25;;;;;;;42.67;27.65;;;;;;;;;;1263803;23;20073;-78
2022/11/29 00:50:56;;;;;;;40.50;27.25;;;;;;;;;;1264135;23;20017;-78
2022/11/29 00:51:27;;;;;;;37.85;25.88;;;;;;;;;;1264070;23;20021;-78
2022/11/29 00:51:58;;;;;;;37.72;24.58;;;;;;;;;;1264899;23;20613;-78
2022/11/29 00:52:29;;;;;;;40.08;24.63;;;;;;;;;;1270792;23;20461;-78
2022/11/29 00:53:00;;;;;;;40.35;26.63;;;;;;;;;;1270386;23;20088;-78
2022/11/29 00:53:31;;;;;;;41.75;28.52;;;;;;;;;;1270782;23;20482;-77
2022/11/29 00:54:02;;;;;;;36.38;25.27;;;;;;;;;;1263985;23;20006;-78
2022/11/29 00:54:33;;;;;;;41.05;27.08;;;;;;;;;;1264356;23;20013;-77
2022/11/29 00:55:04;;;;;;;35.92;21.98;;;;;;;;;;1263906;23;20101;-79
2022/11/29 00:55:35;;;;;;;46.72;32.67;;;;;;;;;;1264323;23;20005;-78
2022/11/29 00:56:06;;;;;;;44.33;27.98;;;;;;;;;;1263855;23;20009;-78
2022/11/29 00:56:37;;;;;;;42.10;27.98;;;;;;;;;;1264343;23;20006;-77
2022/11/29 00:57:08;;;;;;;43.90;29.70;;;;;;;;;;1264221;23;20010;-79
2022/11/29 00:57:39;;;;;;;56.58;31.77;;;;;;;;;;1264194;23;20057;-78
2022/11/29 00:58:10;;;;;;;47.33;30.83;;;;;;;;;;1264322;23;20002;-78
2022/11/29 00:58:42;;;;;;;42.58;28.15;;;;;;;;;;1270800;23;20008;-78
2022/11/29 00:59:13;;;;;;;52.70;31.00;;;;;;;;;;1263887;23;20033;-79
2022/11/29 00:59:44;;;;;;;51.33;30.50;;;;;;;;;;1264597;23;20069;-77
2022/11/29 01:00:15;;;;;;;49.28;30.25;;;;;;;;;;1264189;23;20013;-78
2022/11/29 01:00:46;;;;;;;43.35;27.88;;;;;;;;;;1264292;23;20009;-77
2022/11/29 01:01:17;;;;;;;44.20;28.15;;;;;;;;;;1263187;23;20006;-77
2022/11/29 01:01:48;;;;;;;46.25;28.65;;;;;;;;;;1258112;23;20030;-78
2022/11/29 01:02:19;;;;;;;44.65;28.85;;;;;;;;;;1258878;23;20002;-79
2022/11/29 01:02:50;;;;;;;45.00;29.48;;;;;;;;;;1264196;23;20477;-78
2022/11/29 01:03:21;;;;;;;46.67;29.48;;;;;;;;;;1263765;23;20348;-77
2022/11/29 01:03:52;;;;;;;50.75;31.05;;;;;;;;;;1264083;23;20002;-77
2022/11/29 01:04:23;;;;;;;48.55;30.00;;;;;;;;;;1263551;23;20002;-77
2022/11/29 01:04:54;;;;;;;43.20;27.70;;;;;;;;;;1264463;23;20006;-77
2022/11/29 01:05:25;;;;;;;54.80;33.40;;;;;;;;;;1264169;23;19998;-78
2022/11/29 01:06:00;;;;;;;45.17;29.25;;;;;;;;;;1264018;23;20002;-78
2022/11/29 01:06:31;;;;;;;50.50;29.25;;;;;;;;;;1265296;23;20025;-77
2022/11/29 01:07:02;;;;;;;52.53;31.42;;;;;;;;;;1263871;23;20010;-77
2022/11/29 01:07:33;;;;;;;49.03;30.20;;;;;;;;;;1264174;23;20085;-78
2022/11/29 01:08:04;;;;;;;50.20;31.70;;;;;;;;;;1264293;23;20033;-77
2022/11/29 01:08:35;;;;;;;51.22;30.75;;;;;;;;;;1263921;23;20448;-78
2022/11/29 01:09:06;;;;;;;45.08;30.10;;;;;;;;;;1263747;23;20516;-78
2022/11/29 01:09:37;;;;;;;47.33;30.58;;;;;;;;;;1263661;23;20446;-77
2022/11/29 01:10:09;;;;;;;44.72;29.42;;;;;;;;;;1263851;23;20061;-78
2022/11/29 01:10:40;;;;;;;50.15;29.77;;;;;;;;;;1263638;23;20033;-79
2022/11/29 01:11:16;;;;;;;43.83;28.88;;;;;;;;;;1263237;23;20082;-77
2022/11/29 01:11:49;;;;;;;43.60;26.95;;;;;;;;;;1263734;23;19998;-78
2022/11/29 01:12:20;;;;;;;49.25;28.77;;;;;;;;;;1269883;23;20093;-78
2022/11/29 01:12:50;;;;;;;51.25;28.42;;;;;;;;;;1270180;23;20085;-78
2022/11/29 01:13:21;;;;;;;54.08;31.05;;;;;;;;;;1270407;23;20272;-79
2022/11/29 01:13:57;;;;;;;43.15;27.90;;;;;;;;;;1270366;23;20449;-77
2022/11/29 01:14:28;;;;;;;47.67;30.23;;;;;;;;;;1265516;23;20001;-78
2022/11/29 01:14:59;;;;;;;40.90;27.20;;;;;;;;;;1270216;23;20037;-78
2022/11/29 01:15:30;;;;;;;46.08;26.90;;;;;;;;;;1270530;23;20421;-78
2022/11/29 01:16:01;;;;;;;41.17;26.75;;;;;;;;;;1270133;23;20393;-77
2022/11/29 01:16:32;;;;;;;43.50;28.17;;;;;;;;;;1270246;23;20192;-78
2022/11/29 01:17:03;;;;;;;38.70;26.13;;;;;;;;;;1270755;23;20068;-78
2022/11/29 01:17:34;;;;;;;42.53;30.48;;;;;;;;;;1276893;23;19999;-79
2022/11/29 01:18:05;;;;;;;47.83;29.45;;;;;;;;;;1270182;23;20398;-78
2022/11/29 01:18:37;;;;;;;49.75;28.50;;;;;;;;;;1264303;23;20480;-78
2022/11/29 01:19:08;;;;;;;48.78;30.65;;;;;;;;;;1264096;23;20006;-78
2022/11/29 01:19:39;;;;;;;45.78;30.25;;;;;;;;;;1264612;23;20147;-78
2022/11/29 01:20:11;;;;;;;42.47;26.73;;;;;;;;;;1263968;23;20469;-77
2022/11/29 01:20:42;;;;;;;47.03;27.50;;;;;;;;;;1264387;23;20283;-77
2022/11/29 01:21:14;;;;;;;47.38;27.52;;;;;;;;;;1264790;23;20354;-77
2022/11/29 01:21:45;;;;;;;49.33;29.23;;;;;;;;;;1270392;23;20021;-77
2022/11/29 01:22:16;;;;;;;47.15;28.58;;;;;;;;;;1270227;23;20048;-78
2022/11/29 01:22:47;;;;;;;46.28;27.08;;;;;;;;;;1270475;23;20001;-77
2022/11/29 01:23:18;;;;;;;45.92;28.45;;;;;;;;;;1270321;23;20001;-77
2022/11/29 01:23:50;;;;;;;50.00;30.98;;;;;;;;;;1270308;23;20001;-76
2022/11/29 01:24:21;;;;;;;53.50;31.13;;;;;;;;;;1270063;23;20059;-78
2022/11/29 01:24:52;;;;;;;51.35;32.20;;;;;;;;;;1269548;23;20010;-80
2022/11/29 01:25:23;;;;;;;45.90;28.48;;;;;;;;;;1264349;23;20010;-78
2022/11/29 01:26:02;;;;;;;52.85;32.88;;;;;;;;;;1264941;23;20089;-77
2022/11/29 01:26:33;;;;;;;52.60;35.60;;;;;;;;;;1269952;23;20001;-76
2022/11/29 01:27:04;;;;;;;52.65;29.77;;;;;;;;;;1270300;23;20028;-78
2022/11/29 01:27:35;;;;;;;43.10;28.77;;;;;;;;;;1270318;23;20048;-78
2022/11/29 01:28:06;;;;;;;46.40;29.88;;;;;;;;;;1269930;23;20505;-78
2022/11/29 01:28:37;;;;;;;45.97;28.98;;;;;;;;;;1264579;23;20442;-77
2022/11/29 01:29:10;;;;;;;45.90;29.42;;;;;;;;;;1264352;23;20033;-77
2022/11/29 01:29:41;;;;;;;49.58;29.67;;;;;;;;;;1270142;23;19997;-77
2022/11/29 01:30:12;;;;;;;48.70;28.98;;;;;;;;;;1270430;23;20044;-77
2022/11/29 01:30:45;;;;;;;44.95;30.60;;;;;;;;;;1270126;23;20231;-77
2022/11/29 01:31:18;;;;;;;39.42;26.65;;;;;;;;;;1270258;23;20005;-77
2022/11/29 01:31:49;;;;;;;40.55;25.42;;;;;;;;;;1269900;23;20323;-76
2022/11/29 01:32:20;;;;;;;45.50;26.88;;;;;;;;;;1270163;23;20024;-78
2022/11/29 01:32:51;;;;;;;41.85;27.58;;;;;;;;;;1270128;23;19998;-78
2022/11/29 01:33:22;;;;;;;47.30;30.83;;;;;;;;;;1270010;23;20384;-78
2022/11/29 01:33:54;;;;;;;46.95;28.40;;;;;;;;;;1270081;23;20092;-79
2022/11/29 01:34:25;;;;;;;45.08;28.27;;;;;;;;;;1270434;23;20065;-78
2022/11/29 01:34:56;;;;;;;48.85;30.30;;;;;;;;;;1270384;23;20001;-78
2022/11/29 01:35:27;;;;;;;46.92;28.42;;;;;;;;;;1270216;23;20001;-77
2022/11/29 01:35:57;;;;;;;40.85;28.05;;;;;;;;;;1270305;23;20096;-78
2022/11/29 01:36:29;;;;;;;46.75;29.13;;;;;;;;;;1270623;23;20350;-78
2022/11/29 01:37:00;;;;;;;46.97;30.83;;;;;;;;;;1270292;23;20032;-78
2022/11/29 01:37:31;;;;;;;54.95;31.70;;;;;;;;;;1270335;23;20292;-77
2022/11/29 01:38:02;;;;;;;51.55;31.52;;;;;;;;;;1270403;23;20357;-78
2022/11/29 01:38:33;;;;;;;43.45;28.05;;;;;;;;;;1270713;23;20022;-77
2022/11/29 01:39:05;;;;;;;36.33;25.85;;;;;;;;;;1271175;23;20076;-78
2022/11/29 01:39:36;;;;;;;44.05;26.17;;;;;;;;;;1277461;23;20463;-78
2022/11/29 01:40:07;;;;;;;43.80;28.02;;;;;;;;;;1277003;23;20380;-77
2022/11/29 01:40:38;;;;;;;44.55;27.35;;;;;;;;;;1270410;23;20001;-77
2022/11/29 01:41:11;;;;;;;45.40;25.98;;;;;;;;;;1270550;23;20028;-78
2022/11/29 01:41:42;;;;;;;48.95;31.30;;;;;;;;;;1264688;23;20429;-77
2022/11/29 01:42:13;;;;;;;37.47;25.67;;;;;;;;;;1265152;23;20426;-79
2022/11/29 01:42:44;;;;;;;45.75;26.23;;;;;;;;;;1264470;23;20024;-79
2022/11/29 01:43:16;;;;;;;38.08;23.67;;;;;;;;;;1264280;23;20418;-78
2022/11/29 01:44:03;;;;;;;40.42;26.42;;;;;;;;;;1265208;23;20077;-78
2022/11/29 01:44:33;;;;;;;40.55;27.35;;;;;;;;;;1270189;23;20005;-78
2022/11/29 01:45:15;;;;;;;45.20;28.83;;;;;;;;;;1270578;23;20105;-78
2022/11/29 01:45:46;;;;;;;40.38;25.88;;;;;;;;;;1270676;23;20389;-77
2022/11/29 01:46:17;;;;;;;40.42;26.30;;;;;;;;;;1273344;23;20476;-77
2022/11/29 01:46:48;;;;;;;46.58;28.73;;;;;;;;;;1277156;23;20083;-77
2022/11/29 01:47:19;;;;;;;35.53;24.88;;;;;;;;;;1277156;23;19997;-78
2022/11/29 01:47:52;;;;;;;45.97;27.98;;;;;;;;;;1270556;23;20001;-78
2022/11/29 01:48:24;;;;;;;41.65;26.17;;;;;;;;;;1264467;23;20009;-78
2022/11/29 01:48:58;;;;;;;42.33;25.98;;;;;;;;;;1264433;23;20006;-77
2022/11/29 01:49:29;;;;;;;40.40;27.60;;;;;;;;;;1265163;23;19998;-79
2022/11/29 01:50:02;;;;;;;40.28;25.15;;;;;;;;;;1264411;23;20002;-77
2022/11/29 01:50:32;;;;;;;42.67;26.73;;;;;;;;;;1265635;23;20002;-77
2022/11/29 01:51:04;;;;;;;37.38;25.77;;;;;;;;;;1270309;23;20009;-78
2022/11/29 01:51:36;;;;;;;35.60;24.25;;;;;;;;;;1270668;23;20449;-78
2022/11/29 01:52:10;;;;;;;39.90;26.58;;;;;;;;;;1270265;23;20098;-79
2022/11/29 01:52:41;;;;;;;43.33;25.95;;;;;;;;;;1270761;23;20420;-78
2022/11/29 01:53:13;;;;;;;41.05;27.40;;;;;;;;;;1270514;23;20005;-77
2022/11/29 01:53:44;;;;;;;41.28;26.10;;;;;;;;;;1270376;23;19998;-79
2022/11/29 01:54:15;;;;;;;38.50;26.15;;;;;;;;;;1270694;23;20093;-78
2022/11/29 01:54:48;;;;;;;37.80;26.23;;;;;;;;;;1270411;23;20001;-77
2022/11/29 01:55:19;;;;;;;40.55;26.13;;;;;;;;;;1270623;23;20009;-77
2022/11/29 01:55:55;;;;;;;38.45;24.55;;;;;;;;;;1270373;23;20012;-78
2022/11/29 01:56:28;;;;;;;38.67;25.60;;;;;;;;;;1270433;23;20088;-79
2022/11/29 01:56:59;;;;;;;37.17;24.98;;;;;;;;;;1270434;23;20012;-77
2022/11/29 01:57:30;;;;;;;33.38;22.67;;;;;;;;;;1270585;23;20043;-78
2022/11/29 01:58:02;;;;;;;29.35;19.55;;;;;;;;;;1270292;23;20002;-77
2022/11/29 01:58:34;;;;;;;34.90;25.10;;;;;;;;;;1264242;23;20016;-79
2022/11/29 01:59:07;;;;;;;47.50;29.52;;;;;;;;;;1265025;23;20308;-78
2022/11/29 01:59:41;;;;;;;38.97;27.98;;;;;;;;;;1270425;23;20005;-77
2022/11/29 02:00:14;;;;;;;34.97;23.85;;;;;;;;;;1270500;23;20024;-76
2022/11/29 02:00:45;;;;;;;34.47;23.05;;;;;;;;;;1270687;23;20044;-76
2022/11/29 02:01:16;;;;;;;43.42;28.67;;;;;;;;;;1270420;23;19998;-77
2022/11/29 02:01:47;;;;;;;36.10;24.70;;;;;;;;;;1270853;23;19997;-77
2022/11/29 02:02:21;;;;;;;45.60;26.42;;;;;;;;;;1270998;23;20429;-77
2022/11/29 02:02:58;;;;;;;36.72;25.95;;;;;;;;;;1270559;23;20088;-78
2022/11/29 02:03:29;;;;;;;41.30;26.25;;;;;;;;;;1270578;23;20611;-78
2022/11/29 02:04:00;;;;;;;40.90;26.13;;;;;;;;;;1264392;23;20458;-78
2022/11/29 02:04:33;;;;;;;37.97;24.60;;;;;;;;;;1266029;23;20005;-77
2022/11/29 02:05:04;;;;;;;44.50;27.65;;;;;;;;;;1270507;23;20002;-78
2022/11/29 02:05:36;;;;;;;32.78;23.65;;;;;;;;;;1265245;23;20006;-77
2022/11/29 02:06:08;;;;;;;39.70;22.88;;;;;;;;;;1270587;23;20321;-78
2022/11/29 02:06:39;;;;;;;41.38;28.15;;;;;;;;;;1270411;23;20061;-77
2022/11/29 02:07:10;;;;;;;40.90;29.13;;;;;;;;;;1270575;23;20016;-77
2022/11/29 02:07:43;;;;;;;43.67;27.80;;;;;;;;;;1270016;23;20036;-77
2022/11/29 02:08:20;;;;;;;39.40;24.52;;;;;;;;;;1264369;23;20423;-78
2022/11/29 02:08:51;;;;;;;43.35;26.73;;;;;;;;;;1266279;23;20311;-77
2022/11/29 02:09:23;;;;;;;40.85;27.95;;;;;;;;;;1272807;23;20474;-78
2022/11/29 02:09:54;;;;;;;36.15;24.80;;;;;;;;;;1270232;23;20013;-78
2022/11/29 02:10:43;;;;;;;37.17;23.38;;;;;;;;;;1264180;23;20010;-78
2022/11/29 02:11:32;;;;;;;39.03;25.75;;;;;;;;;;1264634;23;20033;-77
2022/11/29 02:12:22;;;;;;;46.45;29.08;;;;;;;;;;1270413;23;20273;-78
2022/11/29 02:13:05;;;;;;;40.33;26.90;;;;;;;;;;1271768;23;20430;-77
2022/11/29 02:13:54;;;;;;;34.72;22.63;;;;;;;;;;1277142;23;20075;-78
2022/11/29 02:14:39;;;;;;;40.25;25.52;;;;;;;;;;1270088;23;20002;-77
2022/11/29 02:15:17;;;;;;;45.70;28.25;;;;;;;;;;1264242;23;20002;-77
2022/11/29 02:16:23;;;;;;;39.38;23.02;;;;;;;;;;1264293;23;19998;-77
2022/11/29 02:17:00;;;;;;;35.63;22.20;;;;;;;;;;1246304;23;20017;-78
2022/11/29 02:17:50;;;;;;;36.38;23.73;;;;;;;;;;1242684;23;20052;-77
2022/11/29 02:18:28;;;;;;;31.08;21.73;;;;;;;;;;1245954;23;20011;-78
2022/11/29 02:19:08;;;;;;;40.22;26.55;;;;;;;;;;1246116;23;20011;-77
2022/11/29 02:19:52;;;;;;;37.80;24.00;;;;;;;;;;1257130;23;20003;-77
2022/11/29 02:20:42;;;;;;;37.63;24.77;;;;;;;;;;1264114;23;20002;-76
2022/11/29 02:21:16;;;;;;;36.10;23.13;;;;;;;;;;1265042;23;20028;-76
2022/11/29 02:21:56;;;;;;;40.05;24.60;;;;;;;;;;1270665;23;20006;-76
2022/11/29 02:22:29;;;;;;;36.92;22.33;;;;;;;;;;1270617;23;20405;-77
2022/11/29 02:23:06;;;;;;;35.88;22.77;;;;;;;;;;1270331;23;20447;-78
2022/11/29 02:23:56;;;;;;;34.20;21.83;;;;;;;;;;1269911;23;20072;-77
2022/11/29 02:24:39;;;;;;;30.27;19.92;;;;;;;;;;1270530;23;20004;-77
2022/11/29 02:25:17;;;;;;;34.25;21.63;;;;;;;;;;1277079;23;20314;-78
2022/11/29 02:26:17;;;;;;;31.02;20.23;;;;;;;;;;1270549;23;20005;-78
2022/11/29 02:27:02;;;;;;;33.88;23.75;;;;;;;;;;1270264;23;20009;-78
2022/11/29 02:27:51;;;;;;;33.45;22.45;;;;;;;;;;1267111;23;20006;-77
2022/11/29 02:28:41;;;;;;;34.75;22.02;;;;;;;;;;1270581;23;20029;-78
2022/11/29 02:29:29;;;;;;;41.80;25.85;;;;;;;;;;1265661;23;20010;-77
2022/11/29 02:30:09;;;;;;;35.38;26.10;;;;;;;;;;1270653;23;20052;-78
2022/11/29 02:30:40;;;;;;;35.47;22.92;;;;;;;;;;1270370;23;20005;-78
2022/11/29 02:31:23;;;;;;;38.05;25.52;;;;;;;;;;1270214;23;20024;-77
2022/11/29 02:32:12;;;;;;;39.95;23.55;;;;;;;;;;1270250;23;20135;-77
2022/11/29 02:33:02;;;;;;;39.00;22.30;;;;;;;;;;1270317;23;20001;-78
2022/11/29 02:33:39;;;;;;;35.83;23.30;;;;;;;;;;1270214;23;20084;-77
2022/11/29 02:34:32;;;;;;;32.75;22.00;;;;;;;;;;1270185;23;20080;-77
2022/11/29 02:35:17;;;;;;;31.88;21.98;;;;;;;;;;1264358;23;20373;-78
2022/11/29 02:35:56;;;;;;;35.95;24.70;;;;;;;;;;1270235;23;20017;-78
2022/11/29 02:37:03;;;;;;;35.55;23.02;;;;;;;;;;1270257;23;20407;-77
2022/11/29 02:37:52;;;;;;;41.22;23.63;;;;;;;;;;1246232;23;20060;-79
2022/11/29 02:38:39;;;;;;;40.47;25.50;;;;;;;;;;1246049;23;20053;-78
2022/11/29 02:39:29;;;;;;;35.42;23.42;;;;;;;;;;1246819;23;20058;-79
2022/11/29 02:40:29;;;;;;;36.08;23.77;;;;;;;;;;1253100;23;20002;-78
2022/11/29 02:41:18;;;;;;;34.95;23.10;;;;;;;;;;1240084;23;20102;-77
2022/11/29 02:41:48;;;;;;;31.00;21.88;;;;;;;;;;1243509;23;20008;-78
2022/11/29 02:42:47;;;;;;;31.08;21.83;;;;;;;;;;1240143;23;20012;-79
2022/11/29 02:43:31;;;;;;;34.90;23.15;;;;;;;;;;1258381;23;20013;-78
2022/11/29 02:44:13;;;;;;;34.53;21.10;;;;;;;;;;1266400;23;20080;-78
2022/11/29 02:44:49;;;;;;;37.38;22.00;;;;;;;;;;1264519;23;20458;-79
2022/11/29 02:45:39;;;;;;;33.08;22.05;;;;;;;;;;1270408;23;20014;-77
2022/11/29 02:46:10;;;;;;;30.25;21.75;;;;;;;;;;1270055;23;20418;-78
2022/11/29 02:46:46;;;;;;;39.80;23.17;;;;;;;;;;1270581;23;20437;-78
2022/11/29 02:47:36;;;;;;;34.60;22.73;;;;;;;;;;1270423;23;20398;-78
2022/11/29 02:48:28;;;;;;;38.22;22.27;;;;;;;;;;1276184;23;20029;-79
2022/11/29 02:49:07;;;;;;;35.50;22.60;;;;;;;;;;1277188;23;20055;-78
2022/11/29 02:49:57;;;;;;;35.03;21.77;;;;;;;;;;1276995;23;20001;-78
2022/11/29 02:50:46;;;;;;;36.72;24.98;;;;;;;;;;1276895;23;20005;-78
2022/11/29 02:51:24;;;;;;;43.28;24.45;;;;;;;;;;1270490;23;20068;-77
2022/11/29 02:51:58;;;;;;;29.88;21.15;;;;;;;;;;1270274;23;20001;-77
2022/11/29 02:52:46;;;;;;;32.33;20.52;;;;;;;;;;1263831;23;20010;-77
2022/11/29 02:53:21;;;;;;;31.17;21.60;;;;;;;;;;1269887;23;20062;-78
2022/11/29 02:54:01;;;;;;;30.65;20.77;;;;;;;;;;1270583;23;20012;-78
2022/11/29 02:54:45;;;;;;;32.55;21.98;;;;;;;;;;1264305;23;20387;-78
2022/11/29 02:55:28;;;;;;;33.03;21.75;;;;;;;;;;1270135;23;20460;-78
2022/11/29 02:56:07;;;;;;;37.75;24.33;;;;;;;;;;1270483;23;20009;-78
2022/11/29 02:56:58;;;;;;;35.53;24.90;;;;;;;;;;1276898;23;20020;-77
2022/11/29 02:57:34;;;;;;;34.60;22.70;;;;;;;;;;1270432;23;20032;-78
2022/11/29 02:58:27;;;;;;;33.45;23.17;;;;;;;;;;1270086;23;20009;-79
2022/11/29 02:59:24;;;;;;;37.97;24.45;;;;;;;;;;1270534;23;20005;-77
2022/11/29 03:00:04;;;;;;;39.05;23.90;;;;;;;;;;1270303;23;20052;-78
2022/11/29 03:00:37;;;;;;;40.17;26.40;;;;;;;;;;1264536;23;20013;-78
2022/11/29 03:01:08;;;;;;;38.03;24.35;;;;;;;;;;1264178;23;20010;-79
2022/11/29 03:01:57;;;;;;;43.17;24.73;;;;;;;;;;1266840;23;20088;-77
2022/11/29 03:02:40;;;;;;;34.47;24.60;;;;;;;;;;1270282;23;20009;-78
2022/11/29 03:03:14;;;;;;;39.03;23.48;;;;;;;;;;1270704;23;20012;-78
2022/11/29 03:03:51;;;;;;;42.72;27.33;;;;;;;;;;1270281;23;20005;-79
2022/11/29 03:04:33;;;;;;;43.45;25.48;;;;;;;;;;1270354;23;20002;-77
2022/11/29 03:05:24;;;;;;;42.95;27.95;;;;;;;;;;1270317;23;20040;-77
2022/11/29 03:06:14;;;;;;;36.78;25.25;;;;;;;;;;1270666;23;20016;-78
2022/11/29 03:07:03;;;;;;;37.25;25.30;;;;;;;;;;1270398;23;20001;-79
2022/11/29 03:07:34;;;;;;;40.70;24.67;;;;;;;;;;1265692;23;20045;-77
2022/11/29 03:08:22;;;;;;;39.23;25.00;;;;;;;;;;1264175;23;20017;-77
2022/11/29 03:09:00;;;;;;;35.75;23.33;;;;;;;;;;1264424;23;20226;-78
2022/11/29 03:09:30;;;;;;;38.25;23.58;;;;;;;;;;1263117;23;20379;-77
2022/11/29 03:10:08;;;;;;;34.23;25.83;;;;;;;;;;1264354;23;20014;-78
2022/11/29 03:10:45;;;;;;;36.63;23.45;;;;;;;;;;1258207;23;20255;-77
2022/11/29 03:11:19;;;;;;;40.08;25.38;;;;;;;;;;1261151;23;20003;-77
2022/11/29 03:12:09;;;;;;;39.58;25.88;;;;;;;;;;1261576;23;20010;-76
2022/11/29 03:12:41;;;;;;;37.03;24.73;;;;;;;;;;1263839;23;20096;-78
2022/11/29 03:13:30;;;;;;;36.83;23.60;;;;;;;;;;1258128;23;20121;-78
2022/11/29 03:14:22;;;;;;;36.90;25.35;;;;;;;;;;1264619;23;19998;-79
2022/11/29 03:14:56;;;;;;;36.35;21.50;;;;;;;;;;1266177;23;20089;-77
2022/11/29 03:15:32;;;;;;;36.72;23.63;;;;;;;;;;1270535;23;20005;-77
2022/11/29 03:16:07;;;;;;;39.97;23.52;;;;;;;;;;1270333;23;20081;-77
2022/11/29 03:17:00;;;;;;;28.98;20.05;;;;;;;;;;1267161;23;20442;-78
2022/11/29 03:17:40;;;;;;;29.05;19.30;;;;;;;;;;1270599;23;20002;-78
2022/11/29 03:18:47;;;;;;;35.95;22.73;;;;;;;;;;1270105;23;20002;-78
2022/11/29 03:19:33;;;;;;;32.55;22.02;;;;;;;;;;1258008;23;20003;-78
2022/11/29 03:20:13;;;;;;;36.47;20.60;;;;;;;;;;1257783;23;20026;-78
2022/11/29 03:20:47;;;;;;;35.67;23.23;;;;;;;;;;1257897;23;20030;-78
2022/11/29 03:21:24;;;;;;;37.17;24.27;;;;;;;;;;1251823;23;20415;-77
2022/11/29 03:22:01;;;;;;;37.35;22.77;;;;;;;;;;1258707;23;20082;-76
2022/11/29 03:22:52;;;;;;;38.83;24.35;;;;;;;;;;1264399;23;20005;-78
2022/11/29 03:23:36;;;;;;;31.63;21.60;;;;;;;;;;1251151;23;20011;-77
2022/11/29 03:24:13;;;;;;;35.03;20.15;;;;;;;;;;1253063;23;20146;-78
2022/11/29 03:24:44;;;;;;;34.47;21.83;;;;;;;;;;1270562;23;20092;-78
2022/11/29 03:25:15;;;;;;;34.70;21.73;;;;;;;;;;1270108;23;20524;-77